createdAt,value
2022-11-02T00:00:00.250Z,13.55
2022-11-02T00:06:20.163Z,13.52
2022-11-02T00:12:43.194Z,13.49
2022-11-02T00:19:03.214Z,13.48
2022-11-02T00:25:26.135Z,13.48
2022-11-02T00:31:46.209Z,13.45
2022-11-02T00:38:09.187Z,13.43
2022-11-02T00:44:29.173Z,13.4
2022-11-02T00:50:52.174Z,13.39
2022-11-02T00:57:12.208Z,13.41
2022-11-02T01:03:35.155Z,13.43
2022-11-02T01:09:55.168Z,13.5
2022-11-02T01:16:18.203Z,13.56
2022-11-02T01:22:38.163Z,13.61
2022-11-02T01:29:01.217Z,13.69
2022-11-02T01:35:21.179Z,13.73
2022-11-02T01:41:44.178Z,13.75
2022-11-02T01:48:04.427Z,13.76
2022-11-02T01:54:27.200Z,13.77
2022-11-02T02:00:47.225Z,13.76
2022-11-02T02:07:10.144Z,13.73
2022-11-02T02:13:30.197Z,13.72
2022-11-02T02:19:53.155Z,13.7
2022-11-02T02:26:13.171Z,13.67
2022-11-02T02:32:36.199Z,13.6
2022-11-02T02:38:56.142Z,13.51
2022-11-02T02:45:19.170Z,13.43
2022-11-02T02:51:39.166Z,13.3
2022-11-02T02:58:02.360Z,13.2
2022-11-02T03:04:22.179Z,13.11
2022-11-02T03:10:45.204Z,13.02
2022-11-02T03:17:05.172Z,12.94
2022-11-02T03:23:28.167Z,12.86
2022-11-02T03:29:48.194Z,12.81
2022-11-02T03:36:11.138Z,12.8
2022-11-02T03:42:31.190Z,12.75
2022-11-02T03:48:54.184Z,12.7
2022-11-02T03:55:14.197Z,12.64
2022-11-02T04:01:37.312Z,12.57
2022-11-02T04:07:59.317Z,12.53
2022-11-02T04:14:20.181Z,12.51
2022-11-02T04:20:40.137Z,12.49
2022-11-02T04:27:03.245Z,12.47
2022-11-02T04:33:23.140Z,12.43
2022-11-02T04:39:46.176Z,12.4
2022-11-02T04:55:35.201Z,12.33
2022-11-02T05:01:58.292Z,12.31
2022-11-02T05:08:18.203Z,12.29
2022-11-02T05:14:41.173Z,12.27
2022-11-02T05:21:01.133Z,12.25
2022-11-02T05:27:24.199Z,12.2
2022-11-02T05:33:44.185Z,12.14
2022-11-02T05:40:07.211Z,12.09
2022-11-02T05:46:27.146Z,12.08
2022-11-02T05:52:50.192Z,12.09
2022-11-02T05:59:10.175Z,12.08
2022-11-02T06:05:33.204Z,12.05
2022-11-02T06:11:53.252Z,12.03
2022-11-02T06:18:16.165Z,11.98
2022-11-02T06:24:36.157Z,11.96
2022-11-02T06:30:59.229Z,11.95
2022-11-02T06:37:19.141Z,11.99
2022-11-02T06:43:42.201Z,12.08
2022-11-02T06:50:02.192Z,12.18
2022-11-02T06:56:25.148Z,12.3
2022-11-02T07:02:45.438Z,12.43
2022-11-02T07:09:08.510Z,12.54
2022-11-02T07:15:28.187Z,12.66
2022-11-02T07:21:52.169Z,12.74
2022-11-02T07:28:12.239Z,12.81
2022-11-02T07:34:35.199Z,12.85
2022-11-02T07:40:55.146Z,12.89
2022-11-02T07:47:18.222Z,12.96
2022-11-02T07:53:38.171Z,13.06
2022-11-02T08:00:01.194Z,13.13
2022-11-02T08:06:21.209Z,13.18
2022-11-02T08:12:44.158Z,13.23
2022-11-02T08:19:04.194Z,13.32
2022-11-02T08:25:27.208Z,13.46
2022-11-02T08:31:47.184Z,13.58
2022-11-02T08:38:10.168Z,13.68
2022-11-02T08:44:30.194Z,13.81
2022-11-02T08:50:53.200Z,13.96
2022-11-02T08:57:13.160Z,14.09
2022-11-02T09:03:36.269Z,14.2
2022-11-02T09:09:56.173Z,14.38
2022-11-02T09:16:19.159Z,14.5
2022-11-02T09:22:39.209Z,14.61
2022-11-02T09:29:02.163Z,14.72
2022-11-02T09:35:22.209Z,14.81
2022-11-02T09:41:45.183Z,14.96
2022-11-02T09:48:17.861Z,15.09
2022-11-02T09:54:28.199Z,15.26
2022-11-02T10:17:16.687Z,15.54
2022-11-02T10:23:36.184Z,15.63
2022-11-02T10:29:59.182Z,15.44
2022-11-02T10:36:19.716Z,15.38
2022-11-02T10:42:42.181Z,15.42
2022-11-02T10:49:02.175Z,15.7
2022-11-02T10:55:25.174Z,15.95
2022-11-02T11:01:45.295Z,16.13
2022-11-02T11:08:08.295Z,16.19
2022-11-02T11:20:51.170Z,16.32
2022-11-02T11:27:11.158Z,16.15
2022-11-02T11:33:35.343Z,16.33
2022-11-02T11:39:55.263Z,16.55
2022-11-02T11:46:18.189Z,16.47
2022-11-02T11:52:38.230Z,16.67
2022-11-02T11:59:01.174Z,16.73
2022-11-02T12:05:21.198Z,17.24
2022-11-02T12:11:44.182Z,17.79
2022-11-02T12:18:04.513Z,17.97
2022-11-02T12:24:27.299Z,17.95
2022-11-02T12:30:47.183Z,18.09
2022-11-02T12:37:33.010Z,17.92
2022-11-02T12:43:30.177Z,18.01
2022-11-02T12:49:53.203Z,17.87
2022-11-02T12:56:13.183Z,17.66
2022-11-02T13:02:36.216Z,17.83
2022-11-02T13:08:56.204Z,17.78
2022-11-02T13:15:19.155Z,17.69
2022-11-02T13:21:43.825Z,17.73
2022-11-02T13:28:05.554Z,17.45
2022-11-02T13:34:22.183Z,17.46
2022-11-02T13:40:45.203Z,17.61
2022-11-02T13:47:05.177Z,17.47
2022-11-02T13:53:28.216Z,17.3
2022-11-02T13:59:48.172Z,16.94
2022-11-02T14:06:11.280Z,16.86
2022-11-02T14:12:31.227Z,16.92
2022-11-02T14:18:54.212Z,17.03
2022-11-02T14:25:14.230Z,17.11
2022-11-02T14:31:37.161Z,17
2022-11-02T14:37:57.216Z,16.9
2022-11-02T14:44:20.238Z,16.77
2022-11-02T14:50:40.230Z,16.65
2022-11-02T14:57:03.298Z,16.56
2022-11-02T15:03:23.182Z,16.37
2022-11-02T15:09:46.187Z,16.14
2022-11-02T15:16:06.243Z,15.94
2022-11-02T15:33:11.080Z,15.51
2022-11-02T15:39:31.183Z,15.28
2022-11-02T15:45:57.671Z,15.11
2022-11-02T15:52:14.265Z,14.97
2022-11-02T15:58:37.175Z,14.76
2022-11-02T16:04:57.202Z,14.51
2022-11-02T16:11:20.220Z,14.26
2022-11-02T16:17:40.170Z,14.11
2022-11-02T16:24:03.197Z,13.98
2022-11-02T16:30:23.179Z,13.84
2022-11-02T16:36:46.204Z,13.74
2022-11-02T16:43:06.172Z,13.59
2022-11-02T16:49:29.284Z,13.31
2022-11-02T16:55:49.381Z,12.95
2022-11-02T17:02:12.594Z,12.66
2022-11-02T17:08:32.506Z,12.44
2022-11-02T17:14:55.221Z,12.25
2022-11-02T17:21:15.143Z,12.05
2022-11-02T17:27:41.027Z,11.94
2022-11-02T17:33:58.207Z,11.83
2022-11-02T17:40:21.173Z,11.7
2022-11-02T17:46:43.053Z,11.57
2022-11-02T17:53:04.165Z,11.39
2022-11-02T17:59:24.175Z,11.22
2022-11-02T18:05:49.396Z,11.06
2022-11-02T18:12:07.175Z,10.82
2022-11-02T18:18:30.182Z,10.64
2022-11-02T18:24:50.207Z,10.59
2022-11-02T18:31:13.191Z,10.54
2022-11-02T18:37:33.160Z,10.46
2022-11-02T18:44:00.640Z,10.3
2022-11-02T18:50:16.161Z,10.14
2022-11-02T18:56:39.172Z,10.09
2022-11-02T19:02:59.188Z,10.08
2022-11-02T19:09:22.133Z,9.99
2022-11-02T19:15:42.770Z,9.86
2022-11-02T19:22:05.222Z,9.78
2022-11-02T19:28:25.164Z,9.73
2022-11-02T19:34:48.175Z,9.71
2022-11-02T19:41:08.190Z,9.75
2022-11-02T19:47:31.234Z,9.79
2022-11-02T19:53:51.149Z,9.81
2022-11-02T20:00:14.443Z,9.84
2022-11-02T20:06:34.197Z,9.82
2022-11-02T20:12:57.144Z,9.81
2022-11-02T20:19:17.242Z,9.79
2022-11-02T20:25:40.159Z,9.76
2022-11-02T20:32:00.304Z,9.76
2022-11-02T20:48:28.101Z,9.81
2022-11-02T20:54:48.167Z,9.8
2022-11-02T21:01:11.351Z,9.78
2022-11-02T21:07:31.196Z,9.77
2022-11-02T21:13:54.165Z,9.74
2022-11-02T21:20:28.802Z,9.68
2022-11-02T21:26:37.196Z,9.63
2022-11-02T21:32:57.160Z,9.58
2022-11-02T21:39:20.215Z,9.56
2022-11-02T21:45:40.202Z,9.55
2022-11-02T21:52:03.225Z,9.53
2022-11-02T21:58:23.460Z,9.53
2022-11-02T22:04:46.275Z,9.55
2022-11-02T22:11:06.200Z,9.55
2022-11-02T22:17:48.273Z,9.51
2022-11-02T22:23:49.229Z,9.45
2022-11-02T22:30:12.207Z,9.39
2022-11-02T22:36:32.177Z,9.34
2022-11-02T22:42:55.235Z,9.29
2022-11-02T22:49:15.163Z,9.25
2022-11-02T22:55:38.165Z,9.26
2022-11-02T23:19:52.169Z,9.08
2022-11-02T23:26:12.183Z,9.06
2022-11-02T23:32:35.173Z,9.06
2022-11-02T23:38:55.218Z,9.03
2022-11-02T23:45:18.167Z,9.01
2022-11-02T23:51:38.218Z,8.99
2022-11-02T23:58:01.254Z,8.99
